Current Weather

Greater Kankakee

Kankakee, Illinois (KIKK)

Report from: Monday, August 15, 2022 7:20 PM CDT
Current time: Monday, August 15, 2022 7:51 PM CDT

Nearby weather
Weather history
Weather forecast

Temperature21.0°C (69.8°F)
Dew point15.0°C (59.0°F)
Winds 7 kts (3.6 m/s, 8.1 mph) North-Northeast (30°)
Visibility10 mi. (16.1 km)
Clouds Sky clear
Altimeter30.06 in.Hg (1018 mB)
Relative humidity69 %
Density altitude778 ft. (237 m)
Remarks Fully automated report
Automated weather observing station with precipitation discriminator
Flight conditions Visual Meteorological Conditions
Raw dataKIKK 160020Z AUTO 03007KT 10SM CLR 21/15 A3006 RMK AO2
An error has occurred. This application may no longer respond until reloaded. Reload 🗙